Time;durP1;ratioP1;P1;durP2;ratioP2;P2;SDS_P1;SDS_P2;PMS_P1;PMS_P2;Temp;Humidity;BMP_temperature;BMP_pressure;BME280_temperature;BME280_humidity;BME280_pressure;Samples;Min_cycle;Max_cycle;Signal;HPM_P1;HPM_P2
2022/07/15 00:00:56;;;;;;;4.22;2.75;;;;;;;17.24;75.36;96956.65;1793506;80;26425;-77
2022/07/15 00:03:23;;;;;;;3.10;2.80;;;;;;;17.24;75.38;96953.38;1815662;79;25720;-80
2022/07/15 00:05:50;;;;;;;3.72;2.72;;;;;;;17.25;75.44;96954.20;1793409;80;28345;-76
2022/07/15 00:08:16;;;;;;;3.12;2.55;;;;;;;17.22;75.43;96958.81;1761936;81;25664;-77
2022/07/15 00:10:43;;;;;;;3.77;3.00;;;;;;;17.19;75.47;96953.88;1793437;80;25650;-77
2022/07/15 00:13:10;;;;;;;2.60;2.40;;;;;;;17.16;75.52;96953.86;1761962;81;26443;-77
2022/07/15 00:15:36;;;;;;;4.08;2.85;;;;;;;17.14;75.55;96952.51;1793466;80;25799;-77
2022/07/15 00:18:04;;;;;;;4.33;2.92;;;;;;;17.12;75.55;96943.77;1762087;81;27408;-77
2022/07/15 00:20:33;;;;;;;3.85;2.85;;;;;;;17.11;75.63;96951.66;1815153;78;25649;-78
2022/07/15 00:23:02;;;;;;;4.17;2.90;;;;;;;17.10;75.63;96944.56;1793198;80;25697;-77
2022/07/15 00:25:29;;;;;;;2.95;2.65;;;;;;;17.05;75.75;96921.34;1762166;81;25452;-78
2022/07/15 00:28:00;;;;;;;4.17;3.10;;;;;;;16.93;75.75;96916.09;1815577;79;25871;-77
2022/07/15 00:30:36;;;;;;;3.72;2.90;;;;;;;16.90;75.95;96908.47;1785629;79;27357;-77
2022/07/15 00:33:03;;;;;;;3.80;3.05;;;;;;;16.90;76.13;96906.53;1753794;81;25822;-77
2022/07/15 00:35:32;;;;;;;5.42;2.98;;;;;;;16.90;76.25;96902.44;1754303;81;25928;-78
2022/07/15 00:37:59;;;;;;;4.97;3.08;;;;;;;16.92;76.29;96885.28;1754131;81;25929;-79
2022/07/15 00:40:26;;;;;;;3.85;3.22;;;;;;;16.95;76.33;96876.30;1754216;81;25735;-77
2022/07/15 00:42:53;;;;;;;5.12;3.45;;;;;;;16.98;76.26;96881.23;1753999;81;28198;-77
2022/07/15 00:45:23;;;;;;;3.62;3.08;;;;;;;16.95;76.16;96873.04;1754033;80;25727;-77
2022/07/15 00:47:54;;;;;;;3.58;3.05;;;;;;;16.96;76.22;96875.23;1754250;81;25788;-77
2022/07/15 00:50:24;;;;;;;3.08;2.67;;;;;;;16.96;76.25;96899.77;1678985;85;26374;-77
2022/07/15 00:53:01;;;;;;;6.50;2.90;;;;;;;16.92;76.20;96912.55;1679172;85;25679;-79
2022/07/15 00:55:32;;;;;;;4.37;3.15;;;;;;;16.92;76.34;96917.18;1677632;85;27400;-79
2022/07/15 00:58:04;;;;;;;3.65;2.90;;;;;;;16.91;76.39;96920.45;1679125;85;25555;-77
2022/07/15 01:00:32;;;;;;;4.08;3.67;;;;;;;16.87;76.41;96906.27;1679246;85;25825;-77
2022/07/15 01:03:01;;;;;;;3.75;2.85;;;;;;;16.77;76.55;96892.03;1679278;85;25800;-79
2022/07/15 01:05:28;;;;;;;3.42;2.90;;;;;;;16.72;76.63;96908.34;1679438;85;25705;-76
2022/07/15 01:07:55;;;;;;;2.87;2.67;;;;;;;16.73;76.75;96908.63;1679333;85;28056;-77
2022/07/15 01:10:26;;;;;;;3.08;2.87;;;;;;;16.71;76.71;96909.96;1679341;85;25746;-77
2022/07/15 01:12:53;;;;;;;5.78;3.30;;;;;;;16.71;76.82;96911.33;1679312;85;26083;-77
2022/07/15 01:15:20;;;;;;;3.22;2.87;;;;;;;16.75;76.93;96919.27;1679401;85;25905;-78
2022/07/15 01:17:46;;;;;;;3.50;3.20;;;;;;;16.76;76.93;96917.64;1679404;85;25358;-75
2022/07/15 01:20:16;;;;;;;3.77;3.30;;;;;;;16.78;77.01;96919.57;1676645;84;27442;-80
2022/07/15 01:22:42;;;;;;;3.10;2.90;;;;;;;16.73;76.90;96908.63;1673514;85;25226;-77
2022/07/15 01:25:09;;;;;;;2.92;2.72;;;;;;;16.69;76.96;96902.05;1673411;85;25757;-77
2022/07/15 01:27:35;;;;;;;2.80;2.60;;;;;;;16.67;77.06;96894.66;1666623;85;25713;-77
2022/07/15 01:30:03;;;;;;;2.90;2.70;;;;;;;16.62;77.08;96886.47;1646143;86;25848;-77
2022/07/15 01:32:29;;;;;;;2.67;2.47;;;;;;;16.63;77.24;96905.83;1666288;86;27484;-78
2022/07/15 01:34:56;;;;;;;4.53;2.80;;;;;;;16.63;77.33;96896.84;1666365;86;25828;-77
2022/07/15 01:37:22;;;;;;;3.98;2.50;;;;;;;16.60;77.39;96886.42;1666350;86;25717;-76
2022/07/15 01:39:49;;;;;;;4.55;2.80;;;;;;;16.58;77.41;96895.67;1666366;86;25906;-78
2022/07/15 01:42:16;;;;;;;5.30;2.80;;;;;;;16.59;77.51;96891.05;1666629;86;25719;-76
2022/07/15 01:44:42;;;;;;;5.05;2.65;;;;;;;16.57;77.49;96904.10;1666502;86;27422;-76
2022/07/15 01:47:09;;;;;;;3.02;2.80;;;;;;;16.52;77.53;96898.09;1719804;80;25272;-78
2022/07/15 01:49:35;;;;;;;3.22;2.90;;;;;;;16.52;77.62;96897.27;1811508;79;25661;-79
2022/07/15 01:52:04;;;;;;;3.20;3.00;;;;;;;16.50;77.75;96893.98;1797669;79;25688;-77
2022/07/15 01:54:32;;;;;;;3.72;2.83;;;;;;;16.55;77.81;96907.63;1811471;79;25667;-79
2022/07/15 01:56:58;;;;;;;4.28;2.92;;;;;;;16.53;77.89;96905.73;1797792;79;27589;-76
2022/07/15 01:59:26;;;;;;;3.22;2.92;;;;;;;16.55;77.96;96912.53;1811424;79;25409;-76
2022/07/15 02:01:57;;;;;;;3.35;2.95;;;;;;;16.55;78.00;96917.98;1797704;79;25698;-77
2022/07/15 02:04:24;;;;;;;4.58;3.20;;;;;;;16.56;78.09;96917.45;1811610;79;26385;-79
2022/07/15 02:06:51;;;;;;;4.53;3.20;;;;;;;16.58;78.20;96918.84;1797537;79;25693;-79
2022/07/15 02:09:18;;;;;;;3.77;3.40;;;;;;;16.57;78.20;96913.64;1811450;79;27473;-76
2022/07/15 02:11:45;;;;;;;5.45;3.37;;;;;;;16.59;78.27;96911.48;1797458;79;25743;-77
2022/07/15 02:14:11;;;;;;;3.60;3.22;;;;;;;16.61;78.28;96914.77;1811515;79;25736;-77
2022/07/15 02:16:38;;;;;;;4.05;3.65;;;;;;;16.62;78.29;96912.36;1797634;79;25759;-77
2022/07/15 02:19:05;;;;;;;3.50;3.20;;;;;;;16.63;78.34;96922.72;1811750;79;25713;-76
2022/07/15 02:21:32;;;;;;;3.83;3.35;;;;;;;16.64;78.35;96924.37;1787486;79;28033;-77
2022/07/15 02:23:58;;;;;;;9.38;3.90;;;;;;;16.61;78.40;96927.03;1793601;80;25712;-78
2022/07/15 02:26:25;;;;;;;3.70;3.40;;;;;;;16.59;78.37;96926.47;1762062;81;25702;-78
2022/07/15 02:28:51;;;;;;;5.28;3.17;;;;;;;16.61;78.43;96932.48;1793730;80;25728;-78
2022/07/15 02:31:18;;;;;;;3.52;3.22;;;;;;;16.62;78.39;96939.61;1762362;81;25718;-77
2022/07/15 02:33:45;;;;;;;6.75;3.40;;;;;;;16.59;78.33;96934.64;1815701;79;28132;-77
2022/07/15 02:36:12;;;;;;;3.60;3.08;;;;;;;16.58;78.35;96939.81;1793428;78;25792;-77
2022/07/15 02:38:40;;;;;;;4.25;3.10;;;;;;;16.57;78.43;96941.71;1815756;78;25654;-79
2022/07/15 02:41:07;;;;;;;3.72;3.30;;;;;;;16.56;78.43;96937.87;1793647;80;25888;-76
2022/07/15 02:43:34;;;;;;;5.70;3.25;;;;;;;16.51;78.36;96928.32;1815758;79;25467;-76
2022/07/15 02:46:01;;;;;;;3.70;3.27;;;;;;;16.50;78.49;96926.14;1793561;80;27452;-77
2022/07/15 02:48:27;;;;;;;5.10;3.17;;;;;;;16.52;78.44;96928.61;1762173;81;25741;-77
2022/07/15 02:50:54;;;;;;;6.78;3.25;;;;;;;16.51;78.38;96926.95;1793471;80;25729;-76
2022/07/15 02:53:23;;;;;;;4.22;3.33;;;;;;;16.50;78.37;96926.14;1762279;81;25686;-79
2022/07/15 02:55:49;;;;;;;4.67;2.90;;;;;;;16.48;78.42;96927.47;1815642;79;25682;-77
2022/07/15 02:58:15;;;;;;;3.30;2.92;;;;;;;16.46;78.39;96922.28;1793494;78;27417;-77
2022/07/15 03:00:42;;;;;;;9.85;3.75;;;;;;;16.47;78.41;96926.65;1762129;81;25730;-79
2022/07/15 03:03:09;;;;;;;6.15;3.40;;;;;;;16.46;78.44;96926.37;1793496;80;25460;-78
2022/07/15 03:05:36;;;;;;;5.42;3.52;;;;;;;16.47;78.44;96928.02;1761984;81;26015;-76
2022/07/15 03:08:02;;;;;;;4.70;3.20;;;;;;;16.47;78.46;96932.09;1793685;80;25654;-77
2022/07/15 03:10:29;;;;;;;3.42;3.12;;;;;;;16.48;78.46;96930.20;1762259;81;27465;-77
2022/07/15 03:12:56;;;;;;;4.25;3.25;;;;;;;16.48;78.49;96928.83;1793291;80;25488;-79
2022/07/15 03:15:22;;;;;;;6.28;3.15;;;;;;;16.45;78.41;96926.62;1762319;81;25714;-78
2022/07/15 03:17:49;;;;;;;4.10;3.10;;;;;;;16.43;78.39;96930.14;1793548;80;25685;-79
2022/07/15 03:20:15;;;;;;;7.58;3.10;;;;;;;16.44;78.38;96937.23;1762258;81;25682;-79
2022/07/15 03:22:42;;;;;;;4.42;3.20;;;;;;;16.43;78.40;96941.04;1793528;80;27496;-77
2022/07/15 03:25:09;;;;;;;5.03;3.47;;;;;;;16.38;78.46;96943.73;1762134;81;25701;-76
2022/07/15 03:27:35;;;;;;;5.50;3.05;;;;;;;16.38;78.58;96949.19;1793699;80;25744;-77
2022/07/15 03:30:03;;;;;;;3.17;2.95;;;;;;;16.35;78.66;96955.97;1762156;81;25730;-80
2022/07/15 03:32:30;;;;;;;3.92;3.45;;;;;;;16.36;78.73;96959.52;1793201;80;44212;-76
2022/07/15 03:34:57;;;;;;;6.20;3.47;;;;;;;16.33;78.71;96955.40;1762045;80;27057;-76
2022/07/15 03:37:24;;;;;;;3.85;2.83;;;;;;;16.34;78.80;96954.31;1793721;80;25707;-78
2022/07/15 03:39:50;;;;;;;3.98;3.20;;;;;;;16.38;78.84;96956.00;1762199;81;25721;-77
2022/07/15 03:42:17;;;;;;;7.10;3.67;;;;;;;16.40;78.88;96960.11;1793617;80;25738;-77
2022/07/15 03:44:43;;;;;;;3.60;3.30;;;;;;;16.43;78.93;96961.47;1762291;81;25686;-77
2022/07/15 03:47:10;;;;;;;4.15;2.95;;;;;;;16.46;78.97;96955.52;1793630;78;28022;-78
2022/07/15 03:49:36;;;;;;;3.27;2.98;;;;;;;16.49;78.95;96956.36;1762205;81;25481;-77
2022/07/15 03:52:04;;;;;;;6.90;3.20;;;;;;;16.51;78.97;96963.20;1793539;80;25259;-78
2022/07/15 03:54:31;;;;;;;4.72;3.77;;;;;;;16.51;78.91;96963.20;1815680;78;25738;-76
2022/07/15 03:56:57;;;;;;;4.10;3.70;;;;;;;16.52;78.91;96968.11;1793642;80;25646;-78
2022/07/15 03:59:24;;;;;;;5.12;3.55;;;;;;;16.54;78.94;96972.77;1762195;79;27342;-77
2022/07/15 04:01:52;;;;;;;6.10;4.00;;;;;;;16.51;78.94;96982.81;1793574;78;25685;-77
2022/07/15 04:04:18;;;;;;;8.20;3.35;;;;;;;16.50;78.99;96975.17;1779439;80;25705;-75
2022/07/15 04:06:45;;;;;;;3.95;3.33;;;;;;;16.52;79.01;96980.38;1793576;80;26380;-76
2022/07/15 04:09:12;;;;;;;4.35;3.77;;;;;;;16.51;79.04;96981.45;1762205;81;25776;-76
2022/07/15 04:14:12;;;;;;;9.10;3.70;;;;;;;16.49;79.12;96987.16;1748436;81;25947;-78
2022/07/15 04:16:39;;;;;;;4.75;4.17;;;;;;;16.51;79.21;96985.53;1749003;82;25326;-76
2022/07/15 04:19:05;;;;;;;5.62;4.67;;;;;;;16.52;79.23;96995.36;1748830;82;26498;-77
2022/07/15 04:21:32;;;;;;;4.10;3.70;;;;;;;16.52;79.36;96998.91;1750719;81;25846;-76
2022/07/15 04:24:00;;;;;;;5.22;3.75;;;;;;;16.50;79.32;97000.23;1723449;83;27518;-77
2022/07/15 04:26:27;;;;;;;4.70;3.00;;;;;;;16.53;79.39;97009.27;1752049;81;25552;-76
2022/07/15 04:28:56;;;;;;;3.70;2.75;;;;;;;16.52;79.40;97013.06;1723264;83;25730;-75
2022/07/15 04:31:23;;;;;;;4.10;2.83;;;;;;;16.50;79.40;97013.86;1752916;81;26571;-76
2022/07/15 04:33:49;;;;;;;4.55;3.25;;;;;;;16.51;79.43;97017.69;1723524;83;25778;-77
2022/07/15 04:36:16;;;;;;;3.37;2.70;;;;;;;16.46;79.52;97018.17;1752382;81;27394;-77
2022/07/15 04:38:42;;;;;;;4.90;3.52;;;;;;;16.46;79.54;97026.34;1723352;83;25841;-76
2022/07/15 04:41:09;;;;;;;6.50;4.28;;;;;;;16.52;79.67;97025.33;1752250;81;26903;-76
2022/07/15 04:43:36;;;;;;;6.25;4.30;;;;;;;16.57;79.76;97023.98;1723630;83;25815;-76
2022/07/15 04:46:02;;;;;;;5.85;4.22;;;;;;;16.64;79.89;97024.65;1752426;81;25776;-76
2022/07/15 04:51:14;;;;;;;5.83;4.45;;;;;;;16.80;79.75;97031.86;1752356;81;25278;-77
2022/07/15 04:53:40;;;;;;;5.12;4.65;;;;;;;16.86;79.84;97036.28;1723405;83;25829;-77
2022/07/15 04:56:07;;;;;;;5.40;4.75;;;;;;;16.92;79.80;97030.31;1752598;81;25720;-76
2022/07/15 04:58:33;;;;;;;7.25;6.55;;;;;;;16.98;79.69;97029.28;1723613;83;25596;-77
2022/07/15 05:01:00;;;;;;;7.08;6.37;;;;;;;17.04;79.42;97035.05;1752408;81;27446;-76
2022/07/15 05:03:27;;;;;;;7.62;6.85;;;;;;;17.06;79.45;97040.23;1723331;83;25820;-77
2022/07/15 05:05:53;;;;;;;8.70;6.47;;;;;;;17.10;79.43;97042.73;1752539;81;25827;-77
2022/07/15 05:08:20;;;;;;;8.55;7.53;;;;;;;17.14;79.41;97051.51;1723486;83;25722;-78
2022/07/15 05:10:47;;;;;;;8.10;7.30;;;;;;;17.18;79.47;97051.78;1752416;81;25974;-77
2022/07/15 05:13:13;;;;;;;8.28;7.47;;;;;;;17.24;79.39;97051.58;1723654;83;28055;-78
2022/07/15 05:15:40;;;;;;;8.80;7.65;;;;;;;17.28;78.94;97064.13;1752119;81;25699;-77
2022/07/15 05:18:07;;;;;;;9.13;8.23;;;;;;;17.29;78.87;97067.14;1768135;80;25706;-77
2022/07/15 05:20:33;;;;;;;8.93;8.03;;;;;;;17.31;79.02;97069.61;1814119;77;26398;-77
2022/07/15 05:23:00;;;;;;;10.15;9.15;;;;;;;17.33;78.89;97077.81;1813915;79;25689;-79
2022/07/15 05:25:27;;;;;;;10.82;9.13;;;;;;;17.33;78.77;97087.36;1814240;79;27473;-77
2022/07/15 05:27:53;;;;;;;10.38;8.30;;;;;;;17.35;78.76;97093.38;1814063;79;25861;-78
2022/07/15 05:30:20;;;;;;;8.55;7.80;;;;;;;17.39;78.61;97094.48;1814175;79;25720;-77
2022/07/15 05:32:46;;;;;;;9.38;8.48;;;;;;;17.38;78.67;97105.69;1814375;79;26315;-77
2022/07/15 05:35:17;;;;;;;10.03;9.03;;;;;;;17.37;78.54;97113.05;1814193;79;25677;-79
2022/07/15 05:37:44;;;;;;;14.00;9.60;;;;;;;17.38;78.27;97120.15;1814088;79;26988;-77
2022/07/15 05:40:12;;;;;;;11.28;10.05;;;;;;;17.39;78.00;97125.06;1814213;79;25646;-77
2022/07/15 05:42:40;;;;;;;12.43;10.88;;;;;;;17.40;77.97;97132.96;1814209;79;25753;-78
2022/07/15 05:45:08;;;;;;;13.08;11.68;;;;;;;17.43;77.61;97131.08;1813843;79;26632;-78
2022/07/15 05:47:34;;;;;;;13.15;10.93;;;;;;;17.45;77.54;97126.73;1814369;79;25424;-77
2022/07/15 05:50:01;;;;;;;14.95;11.10;;;;;;;17.45;77.55;97130.28;1814247;79;27337;-77
2022/07/15 05:52:28;;;;;;;13.10;11.33;;;;;;;17.47;77.63;97134.95;1814238;79;25705;-78
2022/07/15 05:54:55;;;;;;;13.62;12.23;;;;;;;17.49;77.42;97134.69;1814377;79;25728;-78
2022/07/15 05:57:21;;;;;;;12.58;11.28;;;;;;;17.52;77.32;97139.59;1814267;79;25712;-78
2022/07/15 05:59:48;;;;;;;13.30;11.93;;;;;;;17.50;77.06;97141.25;1814444;79;25586;-78
2022/07/15 06:02:14;;;;;;;15.20;12.68;;;;;;;17.57;76.86;97145.10;1814445;79;27484;-78
2022/07/15 06:04:41;;;;;;;12.70;11.53;;;;;;;17.59;76.94;97146.49;1814262;79;25652;-78
2022/07/15 06:07:07;;;;;;;13.15;11.63;;;;;;;17.62;76.75;97152.80;1813975;79;25771;-78
2022/07/15 06:09:34;;;;;;;14.70;11.90;;;;;;;17.62;76.77;97162.36;1814100;79;25699;-78
2022/07/15 06:12:01;;;;;;;17.82;13.90;;;;;;;17.55;76.86;97168.56;1814466;79;25381;-78
2022/07/15 06:14:27;;;;;;;16.87;14.35;;;;;;;17.41;76.54;97169.25;1814399;79;27539;-78
2022/07/15 06:16:54;;;;;;;16.97;15.28;;;;;;;17.30;76.57;97169.72;1814183;79;25226;-80
2022/07/15 06:19:20;;;;;;;18.32;15.70;;;;;;;17.28;76.89;97178.70;1814591;79;25633;-77
2022/07/15 06:21:47;;;;;;;18.82;16.52;;;;;;;17.31;77.00;97179.55;1814708;79;25691;-78
2022/07/15 06:24:13;;;;;;;17.37;15.78;;;;;;;17.28;76.85;97186.34;1793729;78;25673;-78
2022/07/15 06:26:40;;;;;;;18.62;15.48;;;;;;;17.22;76.62;97191.48;1762363;81;27357;-77
2022/07/15 06:29:06;;;;;;;22.15;17.27;;;;;;;17.25;76.10;97192.88;1793635;80;25665;-78
2022/07/15 06:31:33;;;;;;;19.40;17.48;;;;;;;17.21;75.96;97195.83;1762254;81;25715;-78
2022/07/15 06:34:00;;;;;;;20.08;18.07;;;;;;;17.08;75.82;97198.43;1793652;80;25755;-79
2022/07/15 06:36:27;;;;;;;23.10;18.82;;;;;;;17.02;76.21;97202.20;1762473;81;25241;-78
2022/07/15 06:38:54;;;;;;;20.40;18.35;;;;;;;17.09;76.52;97204.70;1815778;79;27494;-78
2022/07/15 06:41:20;;;;;;;21.97;18.50;;;;;;;17.20;76.64;97202.36;1815618;78;25665;-78
2022/07/15 06:43:47;;;;;;;20.00;17.90;;;;;;;17.25;76.42;97210.61;1793734;80;25729;-78
2022/07/15 06:46:14;;;;;;;20.90;18.80;;;;;;;17.33;76.34;97210.13;1762325;81;25731;-77
2022/07/15 06:48:41;;;;;;;21.33;18.98;;;;;;;17.36;75.84;97209.61;1793532;80;25701;-77
2022/07/15 06:51:09;;;;;;;20.10;17.98;;;;;;;17.33;75.77;97215.58;1815685;79;27245;-77
2022/07/15 06:53:36;;;;;;;19.23;17.32;;;;;;;17.38;75.95;97217.00;1793299;80;25712;-77
2022/07/15 06:56:03;;;;;;;17.60;13.95;;;;;;;17.47;76.02;97218.70;1761901;81;25773;-77
2022/07/15 06:58:30;;;;;;;15.78;11.73;;;;;;;17.57;75.10;97223.70;1793742;80;25805;-77
2022/07/15 07:00:56;;;;;;;12.05;10.80;;;;;;;17.64;74.41;97222.97;1762207;81;25559;-77
2022/07/15 07:03:23;;;;;;;10.93;8.83;;;;;;;17.75;73.81;97225.23;1815763;78;27446;-77
2022/07/15 07:05:49;;;;;;;12.78;8.13;;;;;;;17.86;73.07;97227.52;1793550;80;25697;-78
2022/07/15 07:08:16;;;;;;;11.38;8.15;;;;;;;17.94;72.23;97231.12;1762219;81;25603;-77
2022/07/15 07:10:42;;;;;;;9.75;8.43;;;;;;;18.02;71.82;97231.98;1793726;80;25750;-78
2022/07/15 07:13:09;;;;;;;11.88;8.48;;;;;;;18.08;71.71;97235.05;1762221;81;25748;-77
2022/07/15 07:15:36;;;;;;;9.83;7.95;;;;;;;18.12;71.14;97234.78;1793435;80;27421;-78
2022/07/15 07:18:03;;;;;;;13.30;8.30;;;;;;;18.20;70.88;97238.41;1762123;81;25628;-78
2022/07/15 07:20:29;;;;;;;14.50;7.87;;;;;;;18.26;70.84;97235.14;1815753;79;25732;-77
2022/07/15 07:22:57;;;;;;;12.05;7.12;;;;;;;18.33;70.22;97237.94;1793195;79;26422;-78
2022/07/15 07:25:24;;;;;;;16.65;6.35;;;;;;;18.41;70.07;97242.61;1762322;81;26141;-78
2022/07/15 07:27:51;;;;;;;7.22;6.25;;;;;;;18.51;69.66;97246.76;1793194;80;28410;-77
2022/07/15 07:30:17;;;;;;;7.28;5.47;;;;;;;18.57;68.91;97250.63;1762177;81;25748;-76
2022/07/15 07:32:44;;;;;;;9.65;5.40;;;;;;;18.66;68.49;97246.33;1793736;80;25776;-77
2022/07/15 07:35:11;;;;;;;8.18;5.40;;;;;;;18.75;67.76;97252.09;1762196;81;26487;-78
2022/07/15 07:37:38;;;;;;;8.25;5.10;;;;;;;18.88;67.66;97251.60;1815589;78;25659;-77
2022/07/15 07:40:08;;;;;;;8.75;4.85;;;;;;;18.98;67.36;97246.16;1793374;80;27498;-77
2022/07/15 07:42:35;;;;;;;7.67;5.00;;;;;;;19.08;66.34;97256.87;1762249;80;25752;-77
2022/07/15 07:45:02;;;;;;;9.30;4.10;;;;;;;19.03;66.57;97259.87;1793593;80;25693;-78
2022/07/15 07:47:28;;;;;;;9.05;4.12;;;;;;;19.04;66.71;97262.88;1762277;81;26319;-77
2022/07/15 07:49:55;;;;;;;5.03;3.98;;;;;;;19.04;66.30;97266.98;1793532;80;25697;-76
2022/07/15 07:52:21;;;;;;;5.47;3.77;;;;;;;19.17;65.50;97258.81;1762168;81;27255;-77
2022/07/15 07:54:48;;;;;;;7.95;3.70;;;;;;;19.27;65.09;97268.96;1815525;78;25562;-77
2022/07/15 07:57:14;;;;;;;6.28;3.47;;;;;;;19.38;64.95;97269.25;1793559;80;25635;-78
2022/07/15 07:59:41;;;;;;;5.42;4.00;;;;;;;19.64;64.17;97264.67;1762086;81;25819;-77
2022/07/15 08:02:08;;;;;;;8.08;3.27;;;;;;;19.95;64.60;97266.86;1815625;78;26381;-78
2022/07/15 08:04:34;;;;;;;6.03;3.30;;;;;;;20.38;64.03;97264.94;1793571;80;27957;-78
2022/07/15 08:07:01;;;;;;;3.83;2.55;;;;;;;20.79;63.44;97263.43;1762197;81;25841;-78
2022/07/15 08:09:27;;;;;;;4.33;3.00;;;;;;;21.36;61.68;97247.01;1793701;80;25757;-76
2022/07/15 08:11:54;;;;;;;4.75;3.22;;;;;;;21.36;61.68;97247.01;1762342;79;25583;-78
2022/07/15 08:14:21;;;;;;;5.03;2.37;;;;;;;21.82;61.13;97267.55;1793623;80;25421;-78
2022/07/15 08:16:47;;;;;;;5.30;2.62;;;;;;;21.69;60.41;97273.69;1762196;81;27519;-78
2022/07/15 08:19:16;;;;;;;6.10;2.50;;;;;;;21.78;59.90;97278.84;1793480;80;25472;-78
2022/07/15 08:21:43;;;;;;;4.28;2.58;;;;;;;22.02;60.07;97274.01;1762326;81;25723;-78
2022/07/15 08:24:12;;;;;;;4.25;2.22;;;;;;;22.16;59.23;97274.98;1797204;78;25740;-78
2022/07/15 08:26:39;;;;;;;4.08;2.10;;;;;;;22.18;58.29;97275.52;1764391;81;25446;-78
2022/07/15 08:29:05;;;;;;;5.22;2.55;;;;;;;21.97;57.53;97283.10;1797445;79;26915;-78
2022/07/15 08:31:34;;;;;;;4.45;2.12;;;;;;;21.71;57.88;97281.09;1765892;81;25635;-78
2022/07/15 08:34:02;;;;;;;7.70;2.10;;;;;;;21.56;57.30;97278.45;1797423;79;25773;-78
2022/07/15 08:36:30;;;;;;;8.03;2.58;;;;;;;21.60;57.34;97275.96;1765849;81;25886;-78
2022/07/15 08:38:56;;;;;;;5.10;2.22;;;;;;;21.88;57.39;97277.38;1797582;78;25786;-78
2022/07/15 08:41:23;;;;;;;5.40;2.25;;;;;;;21.86;57.00;97275.47;1765887;81;28394;-78
2022/07/15 08:43:49;;;;;;;4.60;2.20;;;;;;;22.24;56.98;97272.42;1828085;78;25761;-78
2022/07/15 08:46:16;;;;;;;5.70;2.58;;;;;;;22.51;56.36;97277.39;1827984;78;25713;-78
2022/07/15 08:48:51;;;;;;;4.83;2.20;;;;;;;22.29;54.80;97277.06;1828177;77;26352;-79
2022/07/15 08:51:21;;;;;;;5.35;1.98;;;;;;;21.82;54.85;97282.66;1824153;78;25725;-79
2022/07/15 08:53:49;;;;;;;5.62;2.50;;;;;;;21.47;55.38;97287.02;1797422;79;27474;-77
2022/07/15 08:56:18;;;;;;;4.00;2.37;;;;;;;21.17;55.47;97294.28;1765780;81;25642;-78
2022/07/15 08:58:46;;;;;;;5.05;2.65;;;;;;;20.86;55.90;97294.15;1797366;79;25693;-78
2022/07/15 09:01:13;;;;;;;7.42;2.47;;;;;;;20.75;55.92;97291.17;1766026;81;25739;-78
2022/07/15 09:03:39;;;;;;;5.00;2.67;;;;;;;20.64;56.21;97296.41;1797528;79;25239;-78
2022/07/15 09:06:06;;;;;;;5.47;2.42;;;;;;;20.47;56.65;97296.17;1765929;79;27403;-78
2022/07/15 09:08:34;;;;;;;7.42;2.98;;;;;;;20.97;57.41;97293.00;1797430;79;25429;-78
2022/07/15 09:11:01;;;;;;;6.90;2.80;;;;;;;21.72;57.10;97289.61;1764305;81;25758;-78
2022/07/15 09:13:38;;;;;;;6.55;2.47;;;;;;;22.42;56.64;97282.45;1766047;80;25935;-77
2022/07/15 09:16:13;;;;;;;5.75;2.58;;;;;;;22.80;56.28;97282.08;1827811;78;25690;-79
2022/07/15 09:18:43;;;;;;;5.65;2.35;;;;;;;22.90;54.63;97284.15;1828100;78;27478;-78
2022/07/15 09:21:23;;;;;;;5.97;2.22;;;;;;;22.83;53.57;97292.47;1796745;79;25714;-78
2022/07/15 09:23:53;;;;;;;4.83;2.15;;;;;;;22.55;53.43;97300.47;1786400;79;25713;-78
2022/07/15 09:26:38;;;;;;;3.47;1.85;;;;;;;22.27;52.79;97300.72;1785923;80;26302;-78
2022/07/15 09:34:24;;;;;;;5.92;2.08;;;;;;;23.46;52.83;97285.34;1633551;87;25369;-79
2022/07/15 09:36:57;;;;;;;4.37;2.30;;;;;;;24.02;51.60;97283.44;1633475;87;25899;-79
2022/07/15 09:39:25;;;;;;;4.45;1.65;;;;;;;24.28;50.99;97288.52;1633390;87;26728;-77
2022/07/15 09:41:53;;;;;;;2.87;1.82;;;;;;;24.36;49.66;97283.71;1633584;87;25764;-78
2022/07/15 09:44:23;;;;;;;4.75;1.92;;;;;;;24.41;49.33;97284.98;1633480;87;27606;-78
2022/07/15 09:47:00;;;;;;;5.15;1.70;;;;;;;24.22;48.82;97291.09;1633505;87;25574;-78
2022/07/15 09:49:34;;;;;;;4.05;1.50;;;;;;;24.32;49.50;97285.43;1633054;87;25980;-79
2022/07/15 09:52:08;;;;;;;4.10;1.98;;;;;;;24.69;49.22;97276.20;1633224;87;25883;-79
2022/07/15 09:54:39;;;;;;;3.35;1.60;;;;;;;24.97;48.13;97281.21;1633667;87;26131;-78
2022/07/15 09:57:11;;;;;;;2.50;1.55;;;;;;;25.17;47.37;97279.40;1633404;87;27637;-79
2022/07/15 09:59:37;;;;;;;5.22;2.12;;;;;;;25.25;46.23;97277.84;1633708;87;25783;-78
2022/07/15 10:02:04;;;;;;;3.77;1.85;;;;;;;25.34;46.60;97282.92;1633426;87;25899;-78
2022/07/15 10:04:31;;;;;;;3.25;1.90;;;;;;;25.33;46.06;97281.28;1633446;87;26511;-77
2022/07/15 10:09:34;;;;;;;4.42;2.15;;;;;;;25.13;45.82;97278.38;1646380;85;27482;-80
2022/07/15 10:12:06;;;;;;;6.08;1.95;;;;;;;25.07;45.70;97276.85;1686179;84;25935;-78
2022/07/15 10:15:01;;;;;;;7.50;2.45;;;;;;;25.03;45.86;97279.41;1686216;85;25907;-78
2022/07/15 10:17:58;;;;;;;6.85;3.12;;;;;;;25.17;45.14;97278.02;1674276;85;25732;-77
2022/07/15 10:20:57;;;;;;;3.30;1.90;;;;;;;25.33;44.40;97273.81;1672310;84;25793;-78
2022/07/15 10:23:41;;;;;;;5.28;2.83;;;;;;;24.99;44.63;97280.34;1671676;84;28292;-77
2022/07/15 10:26:21;;;;;;;7.55;1.90;;;;;;;25.18;44.81;97287.13;1670712;85;25557;-79
2022/07/15 10:29:03;;;;;;;4.00;1.72;;;;;;;25.24;44.24;97271.50;1667974;85;25747;-77
2022/07/15 10:31:31;;;;;;;;;;;;;;;25.16;44.58;97279.70;1668197;84;25794;-77
2022/07/15 10:34:15;;;;;;;3.22;1.62;;;;;;;25.19;43.80;97275.77;1744503;82;25773;-78
2022/07/15 10:36:53;;;;;;;6.47;2.05;;;;;;;25.46;43.34;97280.45;1744216;82;27408;-78
2022/07/15 10:39:24;;;;;;;9.10;2.10;;;;;;;25.42;43.22;97281.62;1744551;82;25985;-78
2022/07/15 10:41:58;;;;;;;5.50;1.90;;;;;;;25.39;43.05;97279.47;1720717;83;25793;-78
2022/07/15 10:44:28;;;;;;;4.33;1.40;;;;;;;25.24;43.07;97272.88;1720682;83;26905;-78
2022/07/15 10:47:18;;;;;;;4.25;2.05;;;;;;;25.04;42.76;97270.56;1720765;83;25840;-78
2022/07/15 10:49:48;;;;;;;3.72;1.77;;;;;;;24.77;42.96;97274.09;1720559;83;28155;-78
2022/07/15 10:52:24;;;;;;;4.47;1.70;;;;;;;24.62;43.19;97275.23;1720536;83;25480;-77
2022/07/15 10:55:03;;;;;;;4.30;2.08;;;;;;;24.32;42.76;97269.70;1720754;83;25803;-78
2022/07/15 10:57:53;;;;;;;3.75;1.60;;;;;;;23.68;43.41;97270.44;1720323;83;25772;-79
2022/07/15 11:00:34;;;;;;;3.20;1.98;;;;;;;23.58;44.46;97280.24;1720657;83;25894;-79
2022/07/15 11:03:14;;;;;;;2.75;1.62;;;;;;;23.34;44.38;97278.34;1720558;83;27545;-77
2022/07/15 11:05:56;;;;;;;3.27;1.75;;;;;;;23.62;44.99;97279.92;1720480;83;25559;-81
2022/07/15 11:08:40;;;;;;;5.12;1.85;;;;;;;23.82;44.40;97281.53;1721512;83;25340;-78
2022/07/15 11:11:21;;;;;;;4.37;1.90;;;;;;;23.73;44.54;97279.20;1722449;83;26559;-78
2022/07/15 11:13:49;;;;;;;4.65;1.35;;;;;;;23.71;44.48;97287.77;1762747;81;25679;-77
2022/07/15 11:16:20;;;;;;;4.87;1.75;;;;;;;23.63;43.86;97292.58;1767285;81;28431;-78
2022/07/15 11:18:53;;;;;;;3.20;1.80;;;;;;;23.60;43.88;97285.72;1767169;81;25845;-78
2022/07/15 11:21:21;;;;;;;5.75;1.92;;;;;;;23.44;44.08;97291.70;1703394;84;25755;-77
2022/07/15 11:23:50;;;;;;;4.15;1.47;;;;;;;23.23;43.78;97291.98;1693664;84;25903;-78
2022/07/15 11:26:18;;;;;;;2.70;1.52;;;;;;;23.33;43.93;97282.20;1689197;84;25933;-77
2022/07/15 11:28:54;;;;;;;1.87;1.30;;;;;;;23.57;43.76;97286.87;1690687;84;27392;-77
2022/07/15 11:31:23;;;;;;;7.22;1.35;;;;;;;23.80;44.23;97279.08;1621946;87;26827;-78
2022/07/15 11:33:54;;;;;;;3.60;1.55;;;;;;;23.80;43.84;97288.72;1618124;87;25828;-76
2022/07/15 11:36:22;;;;;;;2.75;1.55;;;;;;;23.68;43.42;97285.59;1627578;87;25849;-77
2022/07/15 11:38:50;;;;;;;4.12;1.52;;;;;;;23.55;43.02;97293.23;1659971;85;25754;-76
2022/07/15 11:46:53;;;;;;;3.52;1.77;;;;;;;23.44;43.35;97283.44;1607992;89;26045;-79
2022/07/15 11:49:38;;;;;;;5.08;1.30;;;;;;;23.78;43.31;97289.61;1607890;89;25784;-76
2022/07/15 11:52:07;;;;;;;3.90;1.35;;;;;;;23.93;43.33;97281.08;1608257;89;25397;-76
2022/07/15 11:54:40;;;;;;;3.80;1.50;;;;;;;24.04;43.54;97305.98;1607947;89;27380;-77
2022/07/15 11:57:12;;;;;;;4.12;1.60;;;;;;;24.12;42.86;97296.23;1607819;89;25869;-76